Time;durP1;ratioP1;P1;durP2;ratioP2;P2;SDS_P1;SDS_P2;PMS_P1;PMS_P2;Temp;Humidity;BMP_temperature;BMP_pressure;BME280_temperature;BME280_humidity;BME280_pressure;Samples;Min_cycle;Max_cycle;Signal;HPM_P1;HPM_P2
2023/07/20 00:00:15;;;;;;;23.25;13.55;;;;;;;;;;5113338;28;20395;-82
2023/07/20 00:02:43;;;;;;;14.23;10.65;;;;;;;;;;5113439;28;20495;-83
2023/07/20 00:05:10;;;;;;;16.08;11.90;;;;;;;;;;5115522;28;20093;-81
2023/07/20 00:07:37;;;;;;;13.55;10.45;;;;;;;;;;5112837;28;20048;-81
2023/07/20 00:10:04;;;;;;;19.35;10.90;;;;;;;;;;5113161;28;20047;-83
2023/07/20 00:12:32;;;;;;;11.75;9.57;;;;;;;;;;5112569;28;20044;-82
2023/07/20 00:14:59;;;;;;;21.80;11.60;;;;;;;;;;5111631;28;20047;-82
2023/07/20 00:17:26;;;;;;;16.73;10.77;;;;;;;;;;5111117;28;20048;-81
2023/07/20 00:19:53;;;;;;;10.43;9.15;;;;;;;;;;5112300;28;20071;-81
2023/07/20 00:22:21;;;;;;;13.35;10.07;;;;;;;;;;5111390;28;20056;-81
2023/07/20 00:24:49;;;;;;;14.43;9.60;;;;;;;;;;5112583;28;20521;-81
2023/07/20 00:27:16;;;;;;;13.02;9.90;;;;;;;;;;5111307;28;20055;-81
2023/07/20 00:29:43;;;;;;;16.38;10.70;;;;;;;;;;5111177;28;20523;-81
2023/07/20 00:32:11;;;;;;;16.25;9.02;;;;;;;;;;5111713;28;20047;-81
2023/07/20 00:34:38;;;;;;;12.05;9.32;;;;;;;;;;5110932;28;20060;-81
2023/07/20 00:37:05;;;;;;;16.77;10.40;;;;;;;;;;5115128;28;20055;-81
2023/07/20 00:39:33;;;;;;;17.20;9.50;;;;;;;;;;5115132;28;20051;-81
2023/07/20 00:42:00;;;;;;;9.45;8.23;;;;;;;;;;5115369;28;20112;-81
2023/07/20 00:44:27;;;;;;;13.50;8.60;;;;;;;;;;5116359;28;20051;-81
2023/07/20 00:46:55;;;;;;;10.40;7.40;;;;;;;;;;5116166;27;20048;-81
2023/07/20 00:49:23;;;;;;;9.60;8.60;;;;;;;;;;5114787;28;20120;-81
2023/07/20 00:51:51;;;;;;;8.68;7.78;;;;;;;;;;5115550;28;20073;-82
2023/07/20 00:54:18;;;;;;;9.13;7.40;;;;;;;;;;5116428;28;20044;-83
2023/07/20 00:56:46;;;;;;;11.80;9.05;;;;;;;;;;5121592;28;20502;-82
2023/07/20 00:59:13;;;;;;;10.40;8.65;;;;;;;;;;5120295;28;20548;-83
2023/07/20 01:01:41;;;;;;;8.60;7.53;;;;;;;;;;5120146;28;20104;-82
2023/07/20 01:04:09;;;;;;;9.57;8.23;;;;;;;;;;5120406;28;20051;-83
2023/07/20 01:06:36;;;;;;;8.52;7.45;;;;;;;;;;5118057;28;20044;-83
2023/07/20 01:09:26;;;;;;;9.48;8.57;;;;;;;;;;5119926;28;20093;-82
2023/07/20 01:12:00;;;;;;;7.68;6.97;;;;;;;;;;5117294;28;20051;-82
2023/07/20 01:14:27;;;;;;;8.75;7.85;;;;;;;;;;5118571;28;20052;-83
2023/07/20 01:16:54;;;;;;;8.05;7.35;;;;;;;;;;5118321;28;20044;-82
2023/07/20 01:19:22;;;;;;;7.88;7.28;;;;;;;;;;5118796;28;20380;-82
2023/07/20 01:22:16;;;;;;;11.68;7.82;;;;;;;;;;5118378;28;20055;-81
2023/07/20 01:24:43;;;;;;;12.20;8.90;;;;;;;;;;5117230;28;20109;-82
2023/07/20 01:27:29;;;;;;;14.23;7.78;;;;;;;;;;5117300;28;20048;-82
2023/07/20 01:30:16;;;;;;;9.57;8.43;;;;;;;;;;5117191;28;20043;-81
2023/07/20 01:32:45;;;;;;;11.88;8.70;;;;;;;;;;5115527;28;20105;-81
2023/07/20 01:35:14;;;;;;;10.00;8.95;;;;;;;;;;5115207;28;20134;-81
2023/07/20 01:37:46;;;;;;;13.63;9.55;;;;;;;;;;5115281;28;20096;-81
2023/07/20 01:40:15;;;;;;;12.32;9.02;;;;;;;;;;5115107;28;20105;-82
2023/07/20 01:42:47;;;;;;;13.30;10.60;;;;;;;;;;5116209;28;20059;-80
2023/07/20 01:45:14;;;;;;;16.52;11.52;;;;;;;;;;5115647;28;20043;-80
2023/07/20 01:47:42;;;;;;;11.88;10.60;;;;;;;;;;5115316;28;20040;-81
2023/07/20 01:50:10;;;;;;;18.40;9.98;;;;;;;;;;5114538;28;20499;-81
2023/07/20 01:52:37;;;;;;;12.52;9.35;;;;;;;;;;5114138;28;20092;-81
2023/07/20 01:55:04;;;;;;;10.60;8.70;;;;;;;;;;5113666;28;20092;-81
2023/07/20 01:57:32;;;;;;;14.70;10.15;;;;;;;;;;5113273;28;20055;-81
2023/07/20 01:59:59;;;;;;;16.98;12.02;;;;;;;;;;5113379;28;20055;-80
2023/07/20 02:02:30;;;;;;;14.27;8.63;;;;;;;;;;5113290;28;20048;-80
2023/07/20 02:04:58;;;;;;;12.32;9.77;;;;;;;;;;5114581;27;20043;-80
2023/07/20 02:07:26;;;;;;;9.68;8.13;;;;;;;;;;5113232;28;20112;-80
2023/07/20 02:09:53;;;;;;;9.25;8.02;;;;;;;;;;5114534;28;20048;-80
2023/07/20 02:12:20;;;;;;;9.43;8.60;;;;;;;;;;5114246;28;20044;-80
2023/07/20 02:14:47;;;;;;;12.15;7.50;;;;;;;;;;5114174;28;20047;-81
2023/07/20 02:17:15;;;;;;;15.55;10.13;;;;;;;;;;5112975;28;20594;-81
2023/07/20 02:19:42;;;;;;;8.98;7.53;;;;;;;;;;5113230;28;20142;-80
2023/07/20 02:22:09;;;;;;;9.65;8.55;;;;;;;;;;5114397;28;20494;-80
2023/07/20 02:24:37;;;;;;;11.25;7.95;;;;;;;;;;5113016;28;20044;-81
2023/07/20 02:27:04;;;;;;;6.90;6.10;;;;;;;;;;5112349;28;20384;-81
2023/07/20 02:29:31;;;;;;;12.68;8.95;;;;;;;;;;5113830;28;20044;-82
2023/07/20 02:31:59;;;;;;;8.70;7.85;;;;;;;;;;5117277;28;20069;-83
2023/07/20 02:34:26;;;;;;;9.02;7.28;;;;;;;;;;5118358;28;20044;-82
2023/07/20 02:36:56;;;;;;;10.27;8.95;;;;;;;;;;5119138;28;20055;-82
2023/07/20 02:39:23;;;;;;;10.50;7.22;;;;;;;;;;5117613;28;20058;-81
2023/07/20 02:41:50;;;;;;;7.63;6.85;;;;;;;;;;5116842;28;20052;-82
2023/07/20 02:44:17;;;;;;;10.88;7.78;;;;;;;;;;5117959;28;20473;-82
2023/07/20 02:46:44;;;;;;;8.30;7.45;;;;;;;;;;5117463;28;20108;-82
2023/07/20 02:49:12;;;;;;;13.25;9.20;;;;;;;;;;5117334;28;20051;-82
2023/07/20 02:51:39;;;;;;;10.57;8.63;;;;;;;;;;5117420;28;20101;-81
2023/07/20 02:54:06;;;;;;;11.63;8.98;;;;;;;;;;5115479;28;20096;-81
2023/07/20 02:56:33;;;;;;;9.10;8.25;;;;;;;;;;5115991;28;20051;-82
2023/07/20 02:59:02;;;;;;;13.13;9.02;;;;;;;;;;5114251;28;20047;-82
2023/07/20 03:01:29;;;;;;;8.63;7.32;;;;;;;;;;5114582;28;20051;-82
2023/07/20 03:03:57;;;;;;;8.63;7.13;;;;;;;;;;5114282;28;20070;-82
2023/07/20 03:06:24;;;;;;;10.30;7.88;;;;;;;;;;5115632;28;20043;-82
2023/07/20 03:08:53;;;;;;;9.60;8.25;;;;;;;;;;5113554;28;20144;-81
2023/07/20 03:11:21;;;;;;;11.95;8.40;;;;;;;;;;5114969;27;20047;-82
2023/07/20 03:13:48;;;;;;;12.20;9.18;;;;;;;;;;5114931;28;20555;-81
2023/07/20 03:16:19;;;;;;;12.13;9.95;;;;;;;;;;5113312;28;20056;-83
2023/07/20 03:18:48;;;;;;;12.65;9.63;;;;;;;;;;5114633;27;20485;-82
2023/07/20 03:21:15;;;;;;;13.95;10.25;;;;;;;;;;5113955;28;20124;-81
2023/07/20 03:23:42;;;;;;;10.88;8.80;;;;;;;;;;5112663;28;20507;-82
2023/07/20 03:26:10;;;;;;;10.57;8.43;;;;;;;;;;5113972;28;20086;-80
2023/07/20 03:28:38;;;;;;;10.68;8.25;;;;;;;;;;5113467;28;20078;-81
2023/07/20 03:31:05;;;;;;;14.95;7.55;;;;;;;;;;5113061;28;20048;-81
2023/07/20 03:33:33;;;;;;;9.90;8.10;;;;;;;;;;5112748;28;20086;-81
2023/07/20 03:36:00;;;;;;;10.00;7.82;;;;;;;;;;5112874;28;20112;-80
2023/07/20 03:38:28;;;;;;;17.20;9.05;;;;;;;;;;5111600;28;20054;-81
2023/07/20 03:40:57;;;;;;;8.70;7.90;;;;;;;;;;5111745;28;20083;-80
2023/07/20 03:43:25;;;;;;;11.30;8.40;;;;;;;;;;5112814;28;20051;-81
2023/07/20 03:45:53;;;;;;;13.90;9.07;;;;;;;;;;5111493;28;20047;-80
2023/07/20 03:48:21;;;;;;;11.52;9.82;;;;;;;;;;5112380;28;20083;-81
2023/07/20 03:50:49;;;;;;;9.30;8.43;;;;;;;;;;5112854;27;20048;-81
2023/07/20 03:53:16;;;;;;;13.45;11.25;;;;;;;;;;5111733;28;20043;-81
2023/07/20 03:55:48;;;;;;;15.30;11.02;;;;;;;;;;5111206;28;20051;-81
2023/07/20 03:58:16;;;;;;;8.55;7.60;;;;;;;;;;5112117;28;20048;-81
2023/07/20 04:00:46;;;;;;;9.75;8.32;;;;;;;;;;5111268;28;20553;-81
2023/07/20 04:03:14;;;;;;;13.07;10.55;;;;;;;;;;5112930;28;20399;-81
2023/07/20 04:05:43;;;;;;;12.43;10.93;;;;;;;;;;5111196;28;20051;-82
2023/07/20 04:08:11;;;;;;;10.38;9.43;;;;;;;;;;5112818;28;20104;-82
2023/07/20 04:10:39;;;;;;;11.73;10.63;;;;;;;;;;5117991;28;20139;-81
2023/07/20 04:13:06;;;;;;;10.00;8.30;;;;;;;;;;5121708;28;20044;-82
2023/07/20 04:15:34;;;;;;;8.55;7.65;;;;;;;;;;5121640;28;20046;-82
2023/07/20 04:18:01;;;;;;;11.85;9.88;;;;;;;;;;5120645;28;20465;-82
2023/07/20 04:20:28;;;;;;;9.88;8.98;;;;;;;;;;5119953;28;20046;-82
2023/07/20 04:22:55;;;;;;;12.20;10.90;;;;;;;;;;5120165;28;20047;-82
2023/07/20 04:25:23;;;;;;;10.23;8.52;;;;;;;;;;5118695;28;20059;-82
2023/07/20 04:27:51;;;;;;;16.13;13.02;;;;;;;;;;5120741;28;20065;-82
2023/07/20 04:30:22;;;;;;;15.95;12.52;;;;;;;;;;5120999;28;20488;-83
2023/07/20 04:32:50;;;;;;;12.20;9.38;;;;;;;;;;5120269;28;20521;-82
2023/07/20 04:35:35;;;;;;;9.38;8.25;;;;;;;;;;5120603;27;20499;-82
2023/07/20 04:38:03;;;;;;;13.35;11.07;;;;;;;;;;5121248;28;20044;-82
2023/07/20 04:40:30;;;;;;;11.13;9.95;;;;;;;;;;5118139;28;20056;-84
2023/07/20 04:42:57;;;;;;;13.25;8.98;;;;;;;;;;5119595;28;20498;-83
2023/07/20 04:45:24;;;;;;;10.00;8.65;;;;;;;;;;5118152;28;20052;-82
2023/07/20 04:47:52;;;;;;;9.10;7.18;;;;;;;;;;5119617;28;20043;-82
2023/07/20 04:50:19;;;;;;;10.43;6.60;;;;;;;;;;5118606;28;20048;-83
2023/07/20 04:52:48;;;;;;;5.95;5.43;;;;;;;;;;5118176;28;20456;-83
2023/07/20 04:55:15;;;;;;;6.90;6.18;;;;;;;;;;5118144;28;20047;-83
2023/07/20 04:57:42;;;;;;;10.27;6.85;;;;;;;;;;5118016;28;20100;-83
2023/07/20 05:00:11;;;;;;;13.15;8.80;;;;;;;;;;5118228;28;20464;-84
2023/07/20 05:02:38;;;;;;;8.20;5.57;;;;;;;;;;5118832;28;20058;-83
2023/07/20 05:05:06;;;;;;;5.32;4.85;;;;;;;;;;5116119;27;20055;-81
2023/07/20 05:07:33;;;;;;;10.95;7.70;;;;;;;;;;5114101;28;20410;-81
2023/07/20 05:10:00;;;;;;;7.07;6.05;;;;;;;;;;5115456;28;20127;-83
2023/07/20 05:12:28;;;;;;;5.35;4.85;;;;;;;;;;5116596;28;20066;-81
2023/07/20 05:14:55;;;;;;;5.95;5.43;;;;;;;;;;5115490;28;20074;-83
2023/07/20 05:17:22;;;;;;;10.70;7.28;;;;;;;;;;5114523;28;20043;-82
2023/07/20 05:19:49;;;;;;;8.60;6.85;;;;;;;;;;5112741;28;20066;-81
2023/07/20 05:22:17;;;;;;;9.30;8.07;;;;;;;;;;5114255;28;20066;-82
2023/07/20 05:24:44;;;;;;;11.60;6.65;;;;;;;;;;5115275;28;20109;-83
2023/07/20 05:27:12;;;;;;;8.85;7.25;;;;;;;;;;5117812;28;20051;-83
2023/07/20 05:29:43;;;;;;;7.80;7.00;;;;;;;;;;5116863;28;20522;-84
2023/07/20 05:32:11;;;;;;;7.32;6.53;;;;;;;;;;5117050;28;20082;-85
2023/07/20 05:34:38;;;;;;;7.10;6.47;;;;;;;;;;5116238;28;20039;-84
2023/07/20 05:37:05;;;;;;;9.75;8.75;;;;;;;;;;5116532;28;20054;-84
2023/07/20 05:39:33;;;;;;;10.43;7.90;;;;;;;;;;5116422;28;20048;-83
2023/07/20 05:42:00;;;;;;;13.95;10.95;;;;;;;;;;5116708;28;20560;-84
2023/07/20 05:44:27;;;;;;;12.75;9.27;;;;;;;;;;5117341;28;20472;-84
2023/07/20 05:46:55;;;;;;;14.10;10.35;;;;;;;;;;5118077;28;20043;-83
2023/07/20 05:49:24;;;;;;;9.88;8.95;;;;;;;;;;5118013;28;20538;-83
2023/07/20 05:51:52;;;;;;;12.60;11.38;;;;;;;;;;5118692;28;20044;-84
2023/07/20 05:54:19;;;;;;;11.77;10.57;;;;;;;;;;5116897;28;20048;-84
2023/07/20 05:56:46;;;;;;;13.10;10.60;;;;;;;;;;5115438;28;20450;-84
2023/07/20 05:59:14;;;;;;;15.23;11.07;;;;;;;;;;5115621;28;20051;-83
2023/07/20 06:01:41;;;;;;;11.27;10.15;;;;;;;;;;5116237;28;20048;-83
2023/07/20 06:04:08;;;;;;;11.63;10.43;;;;;;;;;;5116132;28;20059;-84
2023/07/20 06:06:36;;;;;;;16.20;11.00;;;;;;;;;;5115352;28;20043;-83
2023/07/20 06:09:04;;;;;;;11.13;10.02;;;;;;;;;;5114543;28;20411;-83
2023/07/20 06:11:31;;;;;;;9.52;8.65;;;;;;;;;;5114681;28;20135;-83
2023/07/20 06:13:58;;;;;;;11.52;9.27;;;;;;;;;;5115747;28;20044;-83
2023/07/20 06:16:26;;;;;;;9.50;8.55;;;;;;;;;;5115467;28;20059;-85
2023/07/20 06:18:53;;;;;;;15.63;9.32;;;;;;;;;;5113852;28;20055;-85
2023/07/20 06:21:20;;;;;;;10.32;7.32;;;;;;;;;;5113713;28;20043;-83
2023/07/20 06:23:47;;;;;;;11.48;7.50;;;;;;;;;;5113806;28;20052;-84
2023/07/20 06:26:15;;;;;;;24.10;10.23;;;;;;;;;;5113854;28;20458;-85
2023/07/20 06:28:42;;;;;;;13.73;7.78;;;;;;;;;;5114273;28;20043;-82
2023/07/20 06:31:10;;;;;;;8.18;5.43;;;;;;;;;;5115887;28;20491;-83
2023/07/20 06:33:38;;;;;;;5.55;5.05;;;;;;;;;;5113650;28;20100;-83
2023/07/20 06:36:05;;;;;;;5.53;4.95;;;;;;;;;;5114573;28;20043;-83
2023/07/20 06:38:32;;;;;;;8.48;5.57;;;;;;;;;;5113935;28;20130;-84
2023/07/20 06:41:00;;;;;;;9.45;5.32;;;;;;;;;;5113918;28;20111;-83
2023/07/20 06:43:30;;;;;;;6.35;4.78;;;;;;;;;;5112516;28;20051;-83
2023/07/20 06:46:00;;;;;;;7.47;4.03;;;;;;;;;;5112890;28;20096;-83
2023/07/20 06:48:28;;;;;;;7.88;4.07;;;;;;;;;;5112925;28;20040;-83
2023/07/20 06:50:55;;;;;;;5.78;4.22;;;;;;;;;;5112880;28;20043;-82
2023/07/20 06:53:22;;;;;;;9.35;4.13;;;;;;;;;;5113866;28;20100;-83
2023/07/20 06:55:49;;;;;;;5.25;3.70;;;;;;;;;;5112481;28;20125;-83
2023/07/20 06:58:18;;;;;;;9.00;4.78;;;;;;;;;;5114062;28;20055;-83
2023/07/20 07:00:46;;;;;;;16.20;6.38;;;;;;;;;;5112871;28;20051;-84
2023/07/20 07:03:13;;;;;;;12.75;4.78;;;;;;;;;;5112744;28;20047;-84
2023/07/20 07:05:40;;;;;;;3.17;2.05;;;;;;;;;;5112545;28;20408;-83
2023/07/20 07:08:08;;;;;;;3.40;1.58;;;;;;;;;;5112628;28;20568;-82
2023/07/20 07:10:36;;;;;;;5.07;2.35;;;;;;;;;;5112346;28;20104;-82
2023/07/20 07:13:03;;;;;;;4.40;1.80;;;;;;;;;;5112877;27;20135;-83
2023/07/20 07:15:32;;;;;;;6.47;1.48;;;;;;;;;;5112385;28;20096;-82
2023/07/20 07:18:00;;;;;;;3.60;0.90;;;;;;;;;;5112416;28;20583;-83
2023/07/20 07:20:27;;;;;;;2.08;1.20;;;;;;;;;;5114036;28;20092;-87
2023/07/20 07:22:56;;;;;;;1.75;1.02;;;;;;;;;;5118107;28;20051;-86
2023/07/20 07:25:24;;;;;;;0.90;0.90;;;;;;;;;;5113948;28;20056;-85
2023/07/20 07:27:52;;;;;;;2.08;1.00;;;;;;;;;;5115029;28;20051;-85
2023/07/20 07:30:19;;;;;;;2.13;1.08;;;;;;;;;;5116734;28;20079;-84
2023/07/20 07:32:46;;;;;;;1.38;0.90;;;;;;;;;;5114541;28;20043;-85
2023/07/20 07:35:14;;;;;;;2.17;1.05;;;;;;;;;;5114468;28;20071;-83
2023/07/20 07:37:42;;;;;;;4.13;1.08;;;;;;;;;;5098876;28;20440;-83
2023/07/20 07:40:30;;;;;;;3.70;1.02;;;;;;;;;;5115160;27;20047;-84
2023/07/20 07:42:57;;;;;;;1.77;1.00;;;;;;;;;;5114116;28;20047;-81
2023/07/20 07:45:24;;;;;;;1.88;1.05;;;;;;;;;;5115103;28;20127;-83
2023/07/20 07:47:52;;;;;;;1.48;0.85;;;;;;;;;;5114763;28;20047;-83
2023/07/20 07:50:19;;;;;;;3.25;1.10;;;;;;;;;;5113929;28;20051;-83
2023/07/20 07:52:46;;;;;;;1.83;1.17;;;;;;;;;;5113720;28;20043;-83
2023/07/20 07:55:16;;;;;;;2.92;1.15;;;;;;;;;;5113768;28;20072;-82
2023/07/20 07:57:43;;;;;;;1.05;0.85;;;;;;;;;;5113121;28;20052;-81
2023/07/20 08:00:14;;;;;;;1.50;1.20;;;;;;;;;;5113478;28;20047;-83
2023/07/20 08:02:42;;;;;;;2.60;0.98;;;;;;;;;;5114251;28;20584;-83
2023/07/20 08:05:10;;;;;;;1.52;1.02;;;;;;;;;;5115220;28;20111;-83
2023/07/20 08:07:37;;;;;;;2.17;1.02;;;;;;;;;;5112413;28;20040;-82
2023/07/20 08:10:05;;;;;;;3.13;1.10;;;;;;;;;;5114337;28;20516;-83
2023/07/20 08:12:32;;;;;;;3.63;1.27;;;;;;;;;;5112618;28;20043;-83
2023/07/20 08:14:59;;;;;;;3.22;1.10;;;;;;;;;;5113419;28;20503;-82
2023/07/20 08:17:27;;;;;;;1.88;0.98;;;;;;;;;;5112405;28;20044;-82
2023/07/20 08:19:54;;;;;;;1.20;0.90;;;;;;;;;;5113608;28;20051;-82
2023/07/20 08:22:21;;;;;;;2.13;1.10;;;;;;;;;;5112926;28;20043;-81
2023/07/20 08:24:49;;;;;;;1.33;0.90;;;;;;;;;;5112123;28;20560;-83
2023/07/20 08:27:16;;;;;;;4.10;1.10;;;;;;;;;;5112207;28;20083;-82
2023/07/20 08:29:43;;;;;;;2.38;0.90;;;;;;;;;;5112141;28;20044;-83
2023/07/20 08:32:13;;;;;;;1.83;1.08;;;;;;;;;;5112040;28;20089;-83
2023/07/20 08:34:40;;;;;;;1.95;0.75;;;;;;;;;;5112869;28;20486;-82
2023/07/20 08:37:09;;;;;;;0.88;0.80;;;;;;;;;;5112058;28;20097;-84
2023/07/20 08:39:37;;;;;;;2.33;1.10;;;;;;;;;;5111535;28;20100;-83
2023/07/20 08:42:06;;;;;;;2.08;1.10;;;;;;;;;;5112771;28;20108;-83
2023/07/20 08:44:34;;;;;;;0.90;0.88;;;;;;;;;;5111527;28;20047;-82
2023/07/20 08:47:03;;;;;;;1.10;0.80;;;;;;;;;;5111570;28;20047;-82
2023/07/20 08:49:34;;;;;;;1.90;0.80;;;;;;;;;;5111692;28;20415;-81
2023/07/20 08:52:02;;;;;;;1.23;1.00;;;;;;;;;;5112755;28;20453;-81
2023/07/20 08:54:34;;;;;;;0.95;0.88;;;;;;;;;;5111783;28;20044;-84
2023/07/20 08:57:05;;;;;;;0.82;0.82;;;;;;;;;;5113241;28;20142;-83
2023/07/20 08:59:33;;;;;;;1.00;0.90;;;;;;;;;;5120791;28;20052;-83
2023/07/20 09:02:00;;;;;;;0.90;0.90;;;;;;;;;;5121395;28;20059;-83
2023/07/20 09:04:28;;;;;;;2.60;0.70;;;;;;;;;;5121740;28;20047;-83
2023/07/20 09:06:55;;;;;;;2.13;1.00;;;;;;;;;;5119488;28;20052;-83
2023/07/20 09:09:22;;;;;;;2.00;0.88;;;;;;;;;;5121114;28;20464;-82
2023/07/20 09:11:50;;;;;;;1.25;1.00;;;;;;;;;;5121865;28;20040;-83
2023/07/20 09:14:18;;;;;;;1.05;0.98;;;;;;;;;;5119519;28;20047;-82
2023/07/20 09:16:56;;;;;;;1.55;0.98;;;;;;;;;;5119034;28;20040;-84
2023/07/20 09:19:23;;;;;;;1.80;0.80;;;;;;;;;;5119016;28;20044;-83
2023/07/20 09:21:51;;;;;;;0.98;0.80;;;;;;;;;;5119810;28;20492;-81
2023/07/20 09:24:19;;;;;;;1.17;0.80;;;;;;;;;;5118252;28;20055;-83
2023/07/20 09:26:51;;;;;;;1.50;0.90;;;;;;;;;;5116636;28;20047;-84
2023/07/20 09:29:19;;;;;;;1.67;0.93;;;;;;;;;;5116460;28;20077;-83
2023/07/20 09:32:02;;;;;;;3.92;1.48;;;;;;;;;;5118652;28;20051;-83
2023/07/20 09:34:32;;;;;;;13.85;2.17;;;;;;;;;;5117618;28;20430;-84
2023/07/20 09:37:03;;;;;;;;;;;;;;;;;;5117354;28;20112;-80
2023/07/20 09:39:31;;;;;;;1.02;0.80;;;;;;;;;;5124634;28;19924;-83
2023/07/20 09:42:02;;;;;;;1.77;0.90;;;;;;;;;;5125281;28;20052;-83
2023/07/20 09:44:32;;;;;;;2.15;0.77;;;;;;;;;;5122935;28;20052;-81
2023/07/20 09:47:03;;;;;;;1.85;1.00;;;;;;;;;;5121846;28;20059;-84
2023/07/20 09:49:32;;;;;;;1.88;0.90;;;;;;;;;;5122740;28;20048;-81
2023/07/20 09:52:19;;;;;;;3.13;1.33;;;;;;;;;;5121374;27;20046;-84
2023/07/20 09:54:50;;;;;;;2.65;1.30;;;;;;;;;;5115620;28;20048;-84
2023/07/20 09:57:17;;;;;;;1.73;1.20;;;;;;;;;;5114315;28;20168;-83
2023/07/20 09:59:44;;;;;;;3.72;1.13;;;;;;;;;;5118258;27;20055;-84
2023/07/20 10:02:17;;;;;;;2.50;1.23;;;;;;;;;;5120798;28;20604;-85
2023/07/20 10:04:45;;;;;;;1.25;1.13;;;;;;;;;;5121240;28;20081;-85
2023/07/20 10:07:12;;;;;;;4.07;1.30;;;;;;;;;;5119594;28;20569;-85
2023/07/20 10:09:40;;;;;;;5.07;1.30;;;;;;;;;;5117985;28;20515;-85
2023/07/20 10:12:09;;;;;;;1.17;1.08;;;;;;;;;;5119172;28;20122;-83
2023/07/20 10:14:49;;;;;;;1.58;0.90;;;;;;;;;;5119159;28;20051;-85
2023/07/20 10:17:18;;;;;;;2.17;0.90;;;;;;;;;;5118990;28;20051;-84
2023/07/20 10:19:48;;;;;;;3.47;1.20;;;;;;;;;;5120010;28;20105;-82
2023/07/20 10:22:26;;;;;;;1.02;0.95;;;;;;;;;;5119818;27;20051;-84
2023/07/20 10:24:54;;;;;;;1.05;0.98;;;;;;;;;;5118031;28;20051;-84
2023/07/20 10:27:21;;;;;;;2.05;0.82;;;;;;;;;;5118102;28;20062;-81
2023/07/20 10:29:49;;;;;;;1.58;1.00;;;;;;;;;;5119268;28;20054;-82
2023/07/20 10:32:16;;;;;;;1.63;1.10;;;;;;;;;;5119604;28;20048;-82
2023/07/20 10:34:43;;;;;;;2.80;0.90;;;;;;;;;;5121069;28;20185;-83
2023/07/20 10:37:11;;;;;;;2.65;1.10;;;;;;;;;;5120554;27;20044;-83
2023/07/20 10:39:38;;;;;;;1.40;1.00;;;;;;;;;;5121626;28;20052;-80
2023/07/20 10:42:09;;;;;;;1.00;0.73;;;;;;;;;;5120716;28;20043;-83
2023/07/20 10:44:40;;;;;;;2.25;0.90;;;;;;;;;;5118937;28;20575;-82
2023/07/20 10:47:11;;;;;;;1.92;1.10;;;;;;;;;;5119123;28;20126;-82
2023/07/20 10:49:58;;;;;;;4.53;1.20;;;;;;;;;;5117690;28;20052;-82
2023/07/20 10:52:25;;;;;;;2.55;0.80;;;;;;;;;;5117887;28;20116;-80
2023/07/20 10:54:53;;;;;;;3.20;1.08;;;;;;;;;;5118496;28;20127;-83
2023/07/20 10:57:24;;;;;;;2.67;0.95;;;;;;;;;;5115835;28;20507;-82
2023/07/20 10:59:52;;;;;;;2.78;1.10;;;;;;;;;;5116130;28;20051;-81
2023/07/20 11:02:20;;;;;;;3.08;0.98;;;;;;;;;;5115958;28;20043;-82
2023/07/20 11:04:48;;;;;;;1.48;0.90;;;;;;;;;;5115601;28;20066;-82
2023/07/20 11:07:17;;;;;;;2.63;0.90;;;;;;;;;;5118383;27;20048;-82
2023/07/20 11:09:45;;;;;;;0.90;0.90;;;;;;;;;;5115792;28;20128;-81
2023/07/20 11:12:16;;;;;;;3.00;0.98;;;;;;;;;;5114975;28;20044;-82
2023/07/20 11:14:54;;;;;;;3.13;0.85;;;;;;;;;;5116303;28;20100;-81
2023/07/20 11:17:22;;;;;;;1.02;0.68;;;;;;;;;;5115129;28;20051;-83
2023/07/20 11:19:49;;;;;;;0.60;0.60;;;;;;;;;;5114434;28;20109;-82
2023/07/20 11:22:20;;;;;;;2.83;1.10;;;;;;;;;;5115052;28;20043;-83
2023/07/20 11:24:49;;;;;;;0.82;0.82;;;;;;;;;;5115253;28;20051;-82
2023/07/20 11:27:18;;;;;;;2.78;0.93;;;;;;;;;;5121814;28;20351;-81
2023/07/20 11:29:46;;;;;;;1.48;1.00;;;;;;;;;;5115288;28;20051;-83
2023/07/20 11:32:13;;;;;;;6.45;1.10;;;;;;;;;;5114757;28;20047;-83
2023/07/20 11:34:40;;;;;;;1.23;0.90;;;;;;;;;;5115364;28;20051;-83
2023/07/20 11:37:07;;;;;;;5.60;1.17;;;;;;;;;;5114663;28;20108;-82
2023/07/20 11:39:37;;;;;;;2.15;1.02;;;;;;;;;;5114836;27;20047;-81
2023/07/20 11:42:06;;;;;;;1.55;1.08;;;;;;;;;;5113915;28;20051;-83
2023/07/20 11:44:33;;;;;;;1.65;1.10;;;;;;;;;;5114110;28;20056;-83
2023/07/20 11:47:02;;;;;;;4.63;1.10;;;;;;;;;;5114808;28;20058;-80
2023/07/20 11:49:30;;;;;;;1.67;1.00;;;;;;;;;;5113716;28;20047;-80
2023/07/20 11:52:01;;;;;;;1.95;1.30;;;;;;;;;;5113133;28;20047;-81
2023/07/20 11:54:28;;;;;;;2.30;1.38;;;;;;;;;;5112066;28;20120;-80
2023/07/20 11:56:56;;;;;;;3.40;1.27;;;;;;;;;;5112443;28;20043;-81
2023/07/20 11:59:23;;;;;;;1.45;1.25;;;;;;;;;;5114528;28;20051;-81
2023/07/20 12:01:51;;;;;;;4.07;1.40;;;;;;;;;;5112963;28;20059;-81
2023/07/20 12:04:18;;;;;;;2.67;1.20;;;;;;;;;;5113272;28;20058;-84
2023/07/20 12:06:46;;;;;;;2.20;1.10;;;;;;;;;;5112251;28;20093;-82
2023/07/20 12:09:17;;;;;;;1.40;1.30;;;;;;;;;;5111970;28;20047;-81
2023/07/20 12:11:45;;;;;;;1.00;1.00;;;;;;;;;;5112402;28;20051;-81
2023/07/20 12:14:12;;;;;;;0.82;0.82;;;;;;;;;;5118624;28;20097;-84
2023/07/20 12:16:44;;;;;;;2.20;0.70;;;;;;;;;;5116195;28;20134;-83
2023/07/20 12:19:12;;;;;;;3.55;0.75;;;;;;;;;;5117469;28;20044;-80
2023/07/20 12:21:43;;;;;;;1.05;0.50;;;;;;;;;;5117466;28;20466;-81
2023/07/20 12:24:11;;;;;;;2.90;0.88;;;;;;;;;;5116066;28;20104;-84
2023/07/20 12:26:38;;;;;;;0.90;0.90;;;;;;;;;;5114702;28;20056;-83
2023/07/20 12:29:06;;;;;;;1.05;0.82;;;;;;;;;;5115110;28;20048;-82
2023/07/20 12:31:34;;;;;;;1.77;0.80;;;;;;;;;;5115717;28;20044;-83
2023/07/20 12:34:03;;;;;;;1.90;0.90;;;;;;;;;;5120194;28;20372;-82
2023/07/20 12:36:31;;;;;;;1.20;1.10;;;;;;;;;;5119317;28;20082;-83
2023/07/20 12:38:59;;;;;;;1.55;1.10;;;;;;;;;;5119386;27;20055;-83
2023/07/20 12:41:26;;;;;;;0.90;0.90;;;;;;;;;;5119141;27;20075;-83
2023/07/20 12:43:53;;;;;;;0.70;0.70;;;;;;;;;;5117720;28;20109;-82
2023/07/20 12:46:22;;;;;;;0.95;0.95;;;;;;;;;;5117401;28;20077;-83
2023/07/20 12:48:50;;;;;;;1.00;1.00;;;;;;;;;;5116523;28;20039;-82
2023/07/20 12:51:17;;;;;;;1.80;0.80;;;;;;;;;;5116839;28;20086;-83
2023/07/20 12:53:45;;;;;;;1.15;1.15;;;;;;;;;;5116548;28;20051;-84
2023/07/20 12:56:12;;;;;;;1.13;0.88;;;;;;;;;;5116018;28;20100;-83
2023/07/20 12:58:42;;;;;;;0.80;0.80;;;;;;;;;;5117062;28;20051;-83
2023/07/20 13:01:09;;;;;;;2.20;1.20;;;;;;;;;;5117229;28;20055;-84
2023/07/20 13:03:37;;;;;;;0.98;0.98;;;;;;;;;;5115798;28;20468;-83
2023/07/20 13:06:24;;;;;;;6.53;1.30;;;;;;;;;;5115525;28;20043;-82
2023/07/20 13:08:56;;;;;;;8.00;1.25;;;;;;;;;;5116276;28;20058;-82
2023/07/20 13:11:23;;;;;;;1.27;1.20;;;;;;;;;;5114792;28;20074;-81
2023/07/20 13:13:51;;;;;;;1.73;1.02;;;;;;;;;;5114490;28;20100;-83
2023/07/20 13:16:19;;;;;;;0.90;0.90;;;;;;;;;;5114608;28;20130;-81
2023/07/20 13:18:46;;;;;;;0.85;0.85;;;;;;;;;;5117010;28;20047;-82
2023/07/20 13:21:13;;;;;;;1.00;1.00;;;;;;;;;;5115078;28;20048;-81
2023/07/20 13:23:40;;;;;;;1.10;1.10;;;;;;;;;;5115706;28;20488;-81
2023/07/20 13:26:08;;;;;;;2.85;0.90;;;;;;;;;;5115815;28;20059;-81
2023/07/20 13:28:35;;;;;;;1.05;0.93;;;;;;;;;;5114737;28;20043;-83
2023/07/20 13:31:04;;;;;;;0.80;0.80;;;;;;;;;;5116122;28;20564;-82
2023/07/20 13:33:31;;;;;;;4.15;1.05;;;;;;;;;;5114215;28;20503;-82
2023/07/20 13:36:06;;;;;;;2.33;0.80;;;;;;;;;;5115548;28;20130;-83
2023/07/20 13:38:35;;;;;;;0.98;0.80;;;;;;;;;;5115850;28;20055;-83
2023/07/20 13:41:03;;;;;;;1.50;1.10;;;;;;;;;;5114599;28;20051;-83
2023/07/20 13:43:30;;;;;;;0.90;0.90;;;;;;;;;;5114931;28;20074;-84
2023/07/20 13:45:57;;;;;;;0.80;0.80;;;;;;;;;;5114456;28;20137;-82
2023/07/20 13:48:25;;;;;;;1.50;1.10;;;;;;;;;;5113946;28;20043;-82
2023/07/20 13:50:55;;;;;;;1.45;0.88;;;;;;;;;;5119801;28;20051;-83
2023/07/20 13:53:25;;;;;;;0.90;0.90;;;;;;;;;;5118355;28;20108;-84
2023/07/20 13:55:56;;;;;;;1.02;0.93;;;;;;;;;;5118059;28;20044;-83
2023/07/20 13:58:27;;;;;;;1.85;0.90;;;;;;;;;;5118555;28;20051;-84
2023/07/20 14:00:54;;;;;;;1.35;0.82;;;;;;;;;;5119124;28;20047;-83
2023/07/20 14:03:22;;;;;;;0.98;0.98;;;;;;;;;;5119269;28;20048;-81
2023/07/20 14:05:50;;;;;;;0.77;0.77;;;;;;;;;;5118687;27;20054;-83
2023/07/20 14:08:21;;;;;;;1.17;1.17;;;;;;;;;;5117566;28;20044;-84
2023/07/20 14:10:48;;;;;;;2.28;0.90;;;;;;;;;;5116664;28;20101;-84
2023/07/20 14:13:18;;;;;;;1.40;0.60;;;;;;;;;;5116370;28;20052;-83
2023/07/20 14:15:50;;;;;;;2.08;0.63;;;;;;;;;;5115479;28;20131;-83
2023/07/20 14:18:18;;;;;;;2.10;0.90;;;;;;;;;;5115592;28;20445;-83
2023/07/20 14:20:46;;;;;;;0.63;0.63;;;;;;;;;;5116757;28;20568;-83
2023/07/20 14:23:13;;;;;;;1.13;0.80;;;;;;;;;;5114799;28;20051;-83
2023/07/20 14:25:41;;;;;;;3.42;1.10;;;;;;;;;;5115376;28;20063;-82
2023/07/20 14:28:08;;;;;;;1.10;1.00;;;;;;;;;;5115019;28;20047;-82
2023/07/20 14:30:35;;;;;;;1.05;0.80;;;;;;;;;;5114286;28;20101;-83
2023/07/20 14:33:03;;;;;;;1.63;0.90;;;;;;;;;;5115553;28;20052;-83
2023/07/20 14:35:30;;;;;;;1.30;1.20;;;;;;;;;;5115201;28;20044;-82
2023/07/20 14:37:58;;;;;;;1.13;1.00;;;;;;;;;;5113997;28;20043;-83
2023/07/20 14:40:25;;;;;;;2.00;1.13;;;;;;;;;;5113728;28;20047;-82
2023/07/20 14:42:52;;;;;;;1.95;1.40;;;;;;;;;;5113780;28;20055;-82
2023/07/20 14:45:20;;;;;;;1.67;0.90;;;;;;;;;;5113057;28;20048;-81